createdAt,value
2018-04-20T00:00:07.096Z,14.50
2018-04-20T00:02:34.685Z,14.50
2018-04-20T00:05:02.258Z,14.50
2018-04-20T00:07:30.607Z,14.50
2018-04-20T00:09:58.189Z,14.50
2018-04-20T00:12:25.849Z,14.50
2018-04-20T00:14:53.421Z,14.50
2018-04-20T00:17:21.791Z,14.50
2018-04-20T00:19:49.362Z,14.50
2018-04-20T00:22:17.712Z,14.40
2018-04-20T00:24:45.291Z,14.40
2018-04-20T00:27:12.862Z,14.40
2018-04-20T00:29:41.198Z,14.30
2018-04-20T00:32:08.778Z,14.30
2018-04-20T00:34:36.357Z,14.30
2018-04-20T00:37:04.697Z,14.20
2018-04-20T00:39:32.273Z,14.20
2018-04-20T00:41:59.859Z,14.20
2018-04-20T00:44:28.199Z,14.10
2018-04-20T00:46:55.758Z,14.10
2018-04-20T00:49:23.350Z,14.10
2018-04-20T00:51:50.909Z,14.10
2018-04-20T00:54:24.237Z,14.10
2018-04-20T00:56:51.810Z,14.00
2018-04-20T00:59:19.397Z,14.00
2018-04-20T01:01:46.966Z,14.00
2018-04-20T01:04:14.640Z,13.90
2018-04-20T01:06:42.209Z,13.90
2018-04-20T01:09:10.550Z,13.90
2018-04-20T01:11:38.124Z,13.90
2018-04-20T01:14:05.702Z,13.80
2018-04-20T01:16:34.046Z,13.80
2018-04-20T01:19:01.614Z,13.80
2018-04-20T01:21:29.303Z,13.80
2018-04-20T01:23:57.642Z,13.70
2018-04-20T01:26:25.221Z,13.70
2018-04-20T01:28:52.798Z,13.70
2018-04-20T01:31:20.453Z,13.70
2018-04-20T01:33:48.016Z,13.60
2018-04-20T01:36:15.676Z,13.60
2018-04-20T01:38:43.337Z,13.60
2018-04-20T01:41:10.915Z,13.50
2018-04-20T01:43:39.253Z,13.50
2018-04-20T01:46:06.833Z,13.50
2018-04-20T01:48:34.484Z,13.50
2018-04-20T01:51:02.166Z,13.50
2018-04-20T01:53:29.832Z,13.40
2018-04-20T01:55:58.201Z,13.40
2018-04-20T01:58:25.866Z,13.30
2018-04-20T02:00:53.459Z,13.30
2018-04-20T02:03:21.030Z,13.30
2018-04-20T02:05:48.621Z,13.30
2018-04-20T02:08:16.202Z,13.20
2018-04-20T02:10:43.771Z,13.20
2018-04-20T02:13:11.398Z,13.20
2018-04-20T02:15:38.995Z,13.20
2018-04-20T02:18:06.656Z,13.10
2018-04-20T02:20:34.319Z,13.10
2018-04-20T02:23:03.400Z,13.10
2018-04-20T02:25:31.085Z,13.10
2018-04-20T02:27:58.657Z,13.10
2018-04-20T02:30:27.000Z,13.00
2018-04-20T02:32:54.662Z,13.00
2018-04-20T02:35:22.334Z,13.00
2018-04-20T02:37:49.922Z,13.00
2018-04-20T02:40:18.278Z,12.90
2018-04-20T02:42:45.933Z,12.90
2018-04-20T02:45:13.604Z,12.90
2018-04-20T02:47:41.197Z,12.90
2018-04-20T02:50:08.835Z,12.90
2018-04-20T02:52:36.414Z,12.80
2018-04-20T02:55:04.751Z,12.80
2018-04-20T02:57:32.322Z,12.80
2018-04-20T02:59:59.894Z,12.70
2018-04-20T03:02:27.465Z,12.70
2018-04-20T03:04:55.836Z,12.60
2018-04-20T03:07:24.183Z,12.60
2018-04-20T03:09:51.745Z,12.60
2018-04-20T03:12:19.312Z,12.60
2018-04-20T03:14:46.891Z,12.60
2018-04-20T03:17:14.462Z,12.50
2018-04-20T03:19:42.801Z,12.50
2018-04-20T03:22:10.379Z,12.50
2018-04-20T03:24:37.946Z,12.50
2018-04-20T03:27:05.609Z,12.40
2018-04-20T03:29:33.273Z,12.40
2018-04-20T03:32:00.929Z,12.40
2018-04-20T03:34:29.259Z,12.30
2018-04-20T03:36:56.869Z,12.30
2018-04-20T03:39:24.437Z,12.20
2018-04-20T03:41:52.093Z,12.20
2018-04-20T03:44:19.662Z,12.10
2018-04-20T03:46:48.000Z,12.10
2018-04-20T03:49:15.560Z,12.10
2018-04-20T03:51:43.125Z,12.10
2018-04-20T03:54:10.694Z,12.10
2018-04-20T03:56:38.266Z,12.10
2018-04-20T03:59:05.840Z,12.10
2018-04-20T04:01:34.173Z,12.00
2018-04-20T04:04:01.768Z,12.00
2018-04-20T04:06:29.337Z,12.00
2018-04-20T04:08:57.667Z,12.00
2018-04-20T04:11:25.266Z,11.90
2018-04-20T04:13:52.933Z,12.00
2018-04-20T04:16:32.291Z,12.00
2018-04-20T04:19:12.468Z,11.90
2018-04-20T04:21:51.918Z,11.90
2018-04-20T04:24:31.526Z,11.90
2018-04-20T04:30:16.410Z,11.90
2018-04-20T04:32:44.762Z,11.90
2018-04-20T04:35:12.322Z,12.00
2018-04-20T04:37:39.889Z,12.00
2018-04-20T04:40:07.449Z,12.00
2018-04-20T04:42:35.029Z,12.00
2018-04-20T04:45:04.272Z,12.10
2018-04-20T04:47:31.969Z,12.10
2018-04-20T04:49:59.629Z,12.10
2018-04-20T04:52:27.288Z,12.20
2018-04-20T04:54:55.628Z,12.30
2018-04-20T04:57:23.223Z,12.30
2018-04-20T04:59:50.897Z,12.40
2018-04-20T05:02:18.557Z,12.40
2018-04-20T05:04:46.217Z,12.40
2018-04-20T05:07:13.839Z,12.40
2018-04-20T05:09:41.413Z,12.50
2018-04-20T05:12:08.986Z,12.50
2018-04-20T05:14:36.661Z,12.60
2018-04-20T05:17:04.233Z,12.60
2018-04-20T05:19:31.885Z,12.60
2018-04-20T05:22:00.261Z,12.70
2018-04-20T05:24:27.913Z,12.70
2018-04-20T05:26:55.482Z,12.70
2018-04-20T05:29:23.076Z,12.80
2018-04-20T05:31:51.431Z,12.80
2018-04-20T05:34:19.082Z,12.80
2018-04-20T05:36:46.745Z,12.90
2018-04-20T05:39:14.312Z,13.00
2018-04-20T05:41:41.886Z,13.00
2018-04-20T05:44:10.221Z,13.20
2018-04-20T05:46:38.030Z,13.10
2018-04-20T05:49:05.676Z,13.20
2018-04-20T05:51:33.248Z,13.30
2018-04-20T05:54:01.583Z,13.40
2018-04-20T05:56:29.156Z,13.30
2018-04-20T05:58:56.719Z,13.40
2018-04-20T06:01:28.392Z,13.60
2018-04-20T06:03:56.333Z,13.60
2018-04-20T06:06:23.901Z,13.70
2018-04-20T06:08:51.461Z,13.80
2018-04-20T06:11:19.056Z,13.80
2018-04-20T06:13:47.398Z,14.00
2018-04-20T06:16:14.958Z,14.00
2018-04-20T06:18:42.538Z,14.10
2018-04-20T06:21:11.615Z,14.30
2018-04-20T06:23:39.207Z,14.30
2018-04-20T06:26:07.548Z,14.50
2018-04-20T06:28:35.122Z,14.40
2018-04-20T06:31:02.789Z,14.60
2018-04-20T06:33:30.366Z,14.70
2018-04-20T06:35:58.732Z,14.90
2018-04-20T06:38:26.551Z,14.80
2018-04-20T06:40:54.111Z,15.00
2018-04-20T06:43:21.698Z,15.10
2018-04-20T06:45:49.297Z,15.20
2018-04-20T06:48:16.889Z,15.30
2018-04-20T06:50:44.477Z,15.40
2018-04-20T06:53:12.063Z,15.50
2018-04-20T06:55:40.129Z,15.70
2018-04-20T06:58:08.541Z,16.00
2018-04-20T07:00:36.895Z,16.20
2018-04-20T07:03:04.484Z,16.20
2018-04-20T07:05:32.060Z,16.40
2018-04-20T07:07:59.630Z,16.60
2018-04-20T07:10:27.205Z,16.80
2018-04-20T07:12:54.824Z,17.00
2018-04-20T07:15:23.175Z,17.30
2018-04-20T07:17:50.809Z,17.30
2018-04-20T07:20:18.381Z,17.50
2018-04-20T07:22:45.978Z,17.70
2018-04-20T07:25:14.333Z,18.00
2018-04-20T07:27:41.904Z,17.90
2018-04-20T07:30:09.499Z,18.20
2018-04-20T07:32:37.216Z,18.50
2018-04-20T07:35:04.798Z,18.70
2018-04-20T07:37:33.143Z,18.90
2018-04-20T07:40:00.938Z,18.90
2018-04-20T07:42:28.554Z,19.00
2018-04-20T07:44:56.130Z,19.40
2018-04-20T07:47:23.709Z,19.60
2018-04-20T07:49:51.270Z,19.90
2018-04-20T07:52:18.848Z,20.20
2018-04-20T07:54:47.184Z,20.50
2018-04-20T07:57:14.756Z,20.50
2018-04-20T07:59:42.318Z,20.70
2018-04-20T08:02:09.886Z,20.60
2018-04-20T08:04:37.447Z,20.80
2018-04-20T08:07:05.022Z,21.00
2018-04-20T08:09:33.350Z,21.60
2018-04-20T08:12:00.905Z,21.60
2018-04-20T08:14:28.471Z,21.90
2018-04-20T08:16:56.048Z,21.80
2018-04-20T08:19:23.612Z,21.90
2018-04-20T08:21:51.192Z,22.10
2018-04-20T08:24:19.518Z,22.80
2018-04-20T08:26:47.106Z,22.70
2018-04-20T08:29:14.675Z,22.80
2018-04-20T08:31:42.242Z,23.00
2018-04-20T08:34:09.804Z,23.20
2018-04-20T08:36:37.374Z,23.40
2018-04-20T08:39:06.616Z,24.20
2018-04-20T08:41:34.198Z,24.10
2018-04-20T08:44:01.760Z,24.40
2018-04-20T08:46:29.323Z,24.30
2018-04-20T08:48:56.889Z,24.10
2018-04-20T08:51:24.461Z,24.10
2018-04-20T08:53:52.038Z,24.50
2018-04-20T08:56:20.375Z,25.50
2018-04-20T08:58:47.942Z,25.40
2018-04-20T09:01:15.506Z,25.90
2018-04-20T09:03:43.082Z,26.00
2018-04-20T09:06:10.737Z,26.50
2018-04-20T09:08:38.302Z,26.80
2018-04-20T09:11:06.677Z,27.90
2018-04-20T09:13:35.026Z,29.10
2018-04-20T09:16:02.593Z,29.00
2018-04-20T09:18:30.168Z,29.90
2018-04-20T09:20:57.848Z,30.50
2018-04-20T09:23:25.506Z,31.20
2018-04-20T09:25:53.855Z,32.20
2018-04-20T09:28:21.428Z,32.10
2018-04-20T09:30:49.001Z,31.60
2018-04-20T09:33:16.578Z,32.40
2018-04-20T09:35:44.926Z,32.30
2018-04-20T09:38:12.487Z,32.40
2018-04-20T09:40:40.053Z,33.20
2018-04-20T09:43:07.639Z,33.50
2018-04-20T09:45:35.978Z,32.60
2018-04-20T09:48:03.538Z,32.60
2018-04-20T09:50:31.105Z,32.90
2018-04-20T09:52:58.670Z,32.80
2018-04-20T09:55:26.238Z,33.20
2018-04-20T09:57:53.800Z,33.80
2018-04-20T10:00:21.410Z,33.90
2018-04-20T10:02:49.128Z,34.30
2018-04-20T10:05:16.698Z,34.20
2018-04-20T10:07:45.037Z,35.60
2018-04-20T10:10:12.602Z,35.50
2018-04-20T10:12:40.335Z,35.90
2018-04-20T10:15:08.058Z,35.80
2018-04-20T10:17:35.621Z,35.90
2018-04-20T10:20:03.954Z,36.30
2018-04-20T10:22:31.530Z,36.20
2018-04-20T10:24:59.123Z,36.80
2018-04-20T10:27:27.465Z,36.40
2018-04-20T10:29:55.029Z,36.40
2018-04-20T10:32:22.610Z,36.10
2018-04-20T10:34:50.182Z,36.60
2018-04-20T10:37:18.536Z,37.10
2018-04-20T10:39:46.101Z,37.00
2018-04-20T10:42:13.681Z,37.10
2018-04-20T10:44:42.011Z,36.40
2018-04-20T10:47:09.575Z,36.30
2018-04-20T10:49:37.217Z,36.60
2018-04-20T10:52:04.778Z,36.40
2018-04-20T10:54:32.346Z,36.40
2018-04-20T10:56:59.902Z,36.10
2018-04-20T10:59:27.478Z,36.90
2018-04-20T11:01:55.521Z,37.40
2018-04-20T11:04:23.090Z,37.70
2018-04-20T11:06:50.650Z,37.20
2018-04-20T11:09:18.234Z,37.70
2018-04-20T11:11:45.795Z,37.60
2018-04-20T11:14:13.365Z,38.20
2018-04-20T11:16:40.928Z,38.30
2018-04-20T11:19:08.487Z,37.70
2018-04-20T11:21:36.062Z,38.00
2018-04-20T11:24:04.411Z,37.90
2018-04-20T11:26:32.684Z,37.90
2018-04-20T11:29:00.249Z,38.90
2018-04-20T11:31:27.917Z,38.50
2018-04-20T11:33:55.485Z,38.50
2018-04-20T11:36:23.053Z,37.80
2018-04-20T11:38:50.613Z,38.30
2018-04-20T11:41:18.207Z,37.50
2018-04-20T11:43:45.833Z,37.80
2018-04-20T11:46:13.419Z,38.00
2018-04-20T11:48:41.825Z,38.30
2018-04-20T11:51:09.416Z,38.30
2018-04-20T11:53:37.089Z,36.90
2018-04-20T11:56:04.669Z,36.90
2018-04-20T11:58:33.012Z,34.70
2018-04-20T12:01:00.589Z,34.60
2018-04-20T12:03:28.220Z,34.30
2018-04-20T12:05:55.802Z,33.90
2018-04-20T12:08:23.377Z,33.30
2018-04-20T12:10:50.944Z,33.40
2018-04-20T12:13:18.520Z,33.40
2018-04-20T12:15:46.117Z,33.40
2018-04-20T12:18:13.723Z,33.30
2018-04-20T12:20:41.289Z,33.20
2018-04-20T12:23:08.948Z,33.10
2018-04-20T12:25:36.607Z,32.70
2018-04-20T12:28:04.165Z,32.80
2018-04-20T12:30:31.752Z,32.60
2018-04-20T12:33:03.382Z,32.40
2018-04-20T12:35:30.982Z,32.50
2018-04-20T12:37:58.545Z,32.60
2018-04-20T12:40:26.150Z,32.50
2018-04-20T12:42:53.734Z,32.60
2018-04-20T12:45:22.066Z,32.50
2018-04-20T12:47:49.659Z,32.50
2018-04-20T12:50:17.505Z,32.60
2018-04-20T12:52:45.164Z,32.40
2018-04-20T12:55:13.562Z,32.40
2018-04-20T12:57:41.122Z,32.40
2018-04-20T13:00:09.024Z,32.40
2018-04-20T13:02:37.362Z,32.60
2018-04-20T13:05:04.921Z,32.50
2018-04-20T13:07:32.492Z,32.60
2018-04-20T13:10:00.045Z,32.50
2018-04-20T13:12:27.641Z,32.40
2018-04-20T13:14:55.973Z,32.40
2018-04-20T13:17:23.537Z,32.30
2018-04-20T13:19:51.102Z,32.40
2018-04-20T13:22:18.684Z,32.50
2018-04-20T13:24:47.021Z,32.40
2018-04-20T13:27:14.611Z,32.40
2018-04-20T13:29:42.179Z,32.50
2018-04-20T13:32:09.754Z,32.40
2018-04-20T13:34:38.077Z,32.40
2018-04-20T13:37:05.723Z,32.40
2018-04-20T13:39:34.033Z,32.10
2018-04-20T13:42:01.614Z,32.00
2018-04-20T13:44:29.189Z,32.20
2018-04-20T13:46:57.521Z,32.30
2018-04-20T13:49:25.098Z,32.30
2018-04-20T13:51:52.656Z,32.30
2018-04-20T13:54:20.230Z,32.00
2018-04-20T13:56:47.793Z,32.20
2018-04-20T13:59:15.358Z,32.10
2018-04-20T14:01:42.924Z,32.30
2018-04-20T14:04:11.248Z,32.50
2018-04-20T14:06:38.823Z,32.50
2018-04-20T14:09:06.386Z,32.50
2018-04-20T14:11:33.964Z,32.40
2018-04-20T14:14:01.528Z,32.30
2018-04-20T14:16:29.099Z,32.20
2018-04-20T14:18:57.441Z,32.30
2018-04-20T14:21:25.802Z,32.10
2018-04-20T14:23:53.355Z,32.10
2018-04-20T14:26:20.953Z,32.10
2018-04-20T14:28:48.513Z,32.10
2018-04-20T14:31:16.089Z,32.00
2018-04-20T14:33:43.650Z,31.90
2018-04-20T14:36:11.245Z,31.90
2018-04-20T14:38:38.946Z,31.90
2018-04-20T14:41:06.509Z,31.80
2018-04-20T14:43:34.090Z,31.70
2018-04-20T14:46:01.650Z,31.70
2018-04-20T14:48:29.242Z,31.80
2018-04-20T14:50:56.855Z,31.90
2018-04-20T14:53:24.448Z,31.80
2018-04-20T14:55:52.785Z,31.60
2018-04-20T14:58:21.115Z,31.60
2018-04-20T15:00:49.477Z,31.60
2018-04-20T15:03:17.050Z,31.60
2018-04-20T15:05:45.413Z,31.20
2018-04-20T15:08:12.981Z,31.20
2018-04-20T15:10:41.334Z,31.00
2018-04-20T15:13:08.943Z,31.00
2018-04-20T15:15:37.253Z,30.40
2018-04-20T15:18:04.813Z,30.40
2018-04-20T15:20:32.421Z,30.40
2018-04-20T15:23:01.231Z,30.10
2018-04-20T15:25:28.812Z,30.00
2018-04-20T15:27:56.374Z,29.80
2018-04-20T15:30:23.938Z,29.80
2018-04-20T15:32:51.501Z,29.70
2018-04-20T15:35:19.076Z,29.60
2018-04-20T15:37:46.642Z,29.60
2018-04-20T15:40:14.247Z,29.60
2018-04-20T15:42:41.820Z,29.50
2018-04-20T15:45:09.395Z,29.40
2018-04-20T15:47:36.976Z,29.30
2018-04-20T15:50:04.550Z,29.30
2018-04-20T15:52:32.126Z,29.20
2018-04-20T15:55:02.998Z,29.00
2018-04-20T15:57:30.602Z,29.00
2018-04-20T15:59:58.165Z,28.90
2018-04-20T16:02:25.751Z,28.90
2018-04-20T16:04:54.082Z,28.70
2018-04-20T16:07:21.678Z,28.70
2018-04-20T16:09:49.299Z,28.70
2018-04-20T16:12:16.877Z,28.60
2018-04-20T16:14:44.438Z,28.60
2018-04-20T16:17:12.008Z,28.60
2018-04-20T16:19:39.573Z,28.50
2018-04-20T16:22:07.153Z,28.40
2018-04-20T16:24:35.479Z,28.30
2018-04-20T16:27:03.080Z,28.30
2018-04-20T16:29:30.645Z,28.20
2018-04-20T16:31:59.078Z,28.10
2018-04-20T16:34:26.671Z,28.10
2018-04-20T16:36:54.241Z,28.10
2018-04-20T16:39:22.773Z,28.00
2018-04-20T16:41:50.386Z,27.90
2018-04-20T16:44:17.966Z,27.90
2018-04-20T16:46:46.401Z,27.70
2018-04-20T16:49:13.952Z,27.70
2018-04-20T16:51:41.525Z,27.70
2018-04-20T16:54:09.143Z,27.60
2018-04-20T16:56:37.469Z,27.50
2018-04-20T16:59:05.136Z,27.50
2018-04-20T17:01:32.718Z,27.50
2018-04-20T17:04:01.062Z,27.40
2018-04-20T17:06:28.636Z,27.30
2018-04-20T17:08:56.215Z,27.30
2018-04-20T17:11:24.632Z,27.10
2018-04-20T17:13:52.218Z,27.10
2018-04-20T17:16:19.794Z,27.10
2018-04-20T17:18:47.449Z,27.00
2018-04-20T17:21:15.018Z,26.90
2018-04-20T17:23:42.578Z,26.80
2018-04-20T17:26:10.203Z,26.70
2018-04-20T17:28:38.021Z,26.60
2018-04-20T17:31:09.813Z,26.30
2018-04-20T17:33:37.433Z,26.20
2018-04-20T17:36:05.011Z,26.00
2018-04-20T17:38:33.343Z,25.60
2018-04-20T17:41:00.921Z,25.60
2018-04-20T17:43:28.505Z,25.50
2018-04-20T17:45:56.856Z,25.30
2018-04-20T17:48:24.413Z,25.20
2018-04-20T17:50:51.986Z,25.10
2018-04-20T17:53:19.573Z,25.00
2018-04-20T17:55:47.174Z,24.90
2018-04-20T17:58:14.741Z,24.80
2018-04-20T18:00:42.312Z,24.60
2018-04-20T18:03:09.889Z,24.50
2018-04-20T18:05:37.490Z,24.40
2018-04-20T18:08:05.077Z,24.30
2018-04-20T18:10:32.657Z,24.20
2018-04-20T18:13:00.278Z,24.10
2018-04-20T18:15:27.920Z,24.00
2018-04-20T18:17:55.494Z,23.90
2018-04-20T18:20:23.063Z,23.80
2018-04-20T18:22:50.637Z,23.60
2018-04-20T18:25:18.210Z,23.50
2018-04-20T18:27:45.787Z,23.40
2018-04-20T18:30:13.369Z,23.30
2018-04-20T18:32:41.840Z,23.10
2018-04-20T18:35:09.409Z,23.00
2018-04-20T18:37:37.747Z,22.90
2018-04-20T18:40:05.314Z,22.90
2018-04-20T18:42:32.907Z,22.80
2018-04-20T18:45:01.253Z,22.70
2018-04-20T18:47:28.844Z,22.70
2018-04-20T18:49:57.286Z,22.50
2018-04-20T18:52:24.869Z,22.50
2018-04-20T18:54:52.480Z,22.50
2018-04-20T18:57:20.134Z,22.40
2018-04-20T18:59:47.855Z,22.30
2018-04-20T19:02:15.474Z,22.30
2018-04-20T19:04:43.238Z,22.30
2018-04-20T19:07:13.520Z,22.20
2018-04-20T19:09:41.164Z,22.10
2018-04-20T19:12:08.806Z,22.10
2018-04-20T19:14:36.389Z,21.90
2018-04-20T19:17:03.968Z,21.90
2018-04-20T19:19:32.353Z,21.70
2018-04-20T19:22:00.706Z,21.60
2018-04-20T19:24:28.357Z,21.60
2018-04-20T19:26:55.941Z,21.60
2018-04-20T19:29:23.527Z,21.50
2018-04-20T19:31:51.931Z,21.30
2018-04-20T19:34:19.615Z,21.30
2018-04-20T19:36:47.182Z,21.20
2018-04-20T19:39:14.777Z,21.20
2018-04-20T19:41:43.171Z,21.10
2018-04-20T19:44:10.768Z,21.00
2018-04-20T19:46:38.639Z,21.00
2018-04-20T19:49:06.232Z,21.00
2018-04-20T19:51:34.576Z,20.80
2018-04-20T19:54:02.171Z,20.80
2018-04-20T19:56:29.757Z,20.70
2018-04-20T19:58:58.368Z,20.60
2018-04-20T20:01:25.949Z,20.60
2018-04-20T20:03:53.528Z,20.60
2018-04-20T20:06:21.900Z,20.50
2018-04-20T20:08:49.469Z,20.50
2018-04-20T20:11:17.050Z,20.40
2018-04-20T20:13:45.392Z,20.20
2018-04-20T20:16:12.962Z,20.20
2018-04-20T20:18:40.541Z,20.10
2018-04-20T20:21:08.895Z,20.00
2018-04-20T20:23:36.467Z,20.00
2018-04-20T20:26:04.114Z,20.00
2018-04-20T20:28:31.726Z,20.00
2018-04-20T20:31:02.284Z,19.90
2018-04-20T20:33:29.858Z,19.80
2018-04-20T20:35:57.433Z,19.70
2018-04-20T20:38:25.026Z,19.70
2018-04-20T20:40:53.357Z,19.60
2018-04-20T20:43:20.937Z,19.60
2018-04-20T20:45:49.298Z,19.50
2018-04-20T20:48:17.249Z,19.50
2018-04-20T20:50:44.831Z,19.50
2018-04-20T20:53:12.415Z,19.50
2018-04-20T20:55:40.000Z,19.40
2018-04-20T20:58:07.619Z,19.40
2018-04-20T21:00:35.237Z,19.40
2018-04-20T21:03:02.830Z,19.30
2018-04-20T21:05:30.426Z,19.30
2018-04-20T21:07:58.766Z,19.30
2018-04-20T21:10:26.344Z,19.20
2018-04-20T21:12:53.945Z,19.30
2018-04-20T21:15:21.529Z,19.30
2018-04-20T21:17:49.167Z,19.30
2018-04-20T21:20:16.745Z,19.20
2018-04-20T21:22:44.311Z,19.20
2018-04-20T21:25:11.902Z,19.20
2018-04-20T21:27:39.530Z,19.10
2018-04-20T21:30:07.100Z,19.10
2018-04-20T21:32:34.690Z,19.10
2018-04-20T21:35:02.270Z,19.10
2018-04-20T21:37:30.680Z,19.10
2018-04-20T21:39:58.985Z,19.00
2018-04-20T21:42:26.560Z,19.00
2018-04-20T21:44:54.744Z,18.90
2018-04-20T21:47:22.339Z,18.90
2018-04-20T21:49:50.689Z,18.80
2018-04-20T21:52:18.257Z,18.80
2018-04-20T21:54:45.976Z,18.80
2018-04-20T21:57:13.553Z,18.70
2018-04-20T21:59:41.130Z,18.60
2018-04-20T22:02:08.705Z,18.60
2018-04-20T22:04:37.204Z,18.50
2018-04-20T22:07:04.781Z,18.50
2018-04-20T22:09:32.342Z,18.60
2018-04-20T22:11:59.939Z,18.70
2018-04-20T22:14:27.512Z,18.80
2018-04-20T22:16:55.106Z,18.90
2018-04-20T22:19:22.677Z,19.00
2018-04-20T22:21:50.249Z,19.10
2018-04-20T22:24:17.821Z,19.20
2018-04-20T22:26:45.403Z,19.30
2018-04-20T22:29:12.978Z,19.30
2018-04-20T22:31:40.619Z,19.40
2018-04-20T22:34:08.188Z,19.40
2018-04-20T22:36:35.762Z,19.30
2018-04-20T22:39:03.341Z,19.30
2018-04-20T22:41:30.925Z,19.30
2018-04-20T22:43:58.497Z,19.20
2018-04-20T22:46:26.075Z,19.10
2018-04-20T22:48:53.641Z,19.00
2018-04-20T22:51:21.222Z,19.00
2018-04-20T22:53:48.798Z,18.90
2018-04-20T22:56:17.132Z,18.80
2018-04-20T22:58:44.728Z,18.80
2018-04-20T23:01:13.075Z,18.60
2018-04-20T23:03:40.652Z,18.50
2018-04-20T23:06:08.241Z,18.40
2018-04-20T23:08:36.497Z,18.00
2018-04-20T23:11:03.985Z,18.00
2018-04-20T23:13:32.246Z,17.90
2018-04-20T23:15:59.734Z,17.80
2018-04-20T23:18:27.235Z,17.80
2018-04-20T23:20:54.790Z,17.70
2018-04-20T23:23:22.290Z,17.70
2018-04-20T23:25:50.554Z,17.60
2018-04-20T23:28:18.045Z,17.50
2018-04-20T23:30:45.550Z,17.40
2018-04-20T23:33:13.039Z,17.40
2018-04-20T23:35:41.305Z,17.40
2018-04-20T23:38:08.780Z,17.30
2018-04-20T23:40:37.025Z,17.30
2018-04-20T23:43:04.521Z,17.30
2018-04-20T23:45:32.779Z,17.20
2018-04-20T23:48:00.266Z,17.20
2018-04-20T23:50:27.758Z,17.10
2018-04-20T23:52:55.242Z,17.10
2018-04-20T23:55:22.734Z,17.00
2018-04-20T23:57:50.223Z,17.00
